Time;durP1;ratioP1;P1;durP2;ratioP2;P2;SDS_P1;SDS_P2;PMS_P1;PMS_P2;Temp;Humidity;BMP_temperature;BMP_pressure;BME280_temperature;BME280_humidity;BME280_pressure;Samples;Min_cycle;Max_cycle;Signal;HPM_P1;HPM_P2
2022/10/01 00:00:12;;;;;;;;;;;;;;;11.41;78.75684;100119.2;;;;-80
2022/10/01 00:05:12;;;;;;;;;;;;;;;11.37;79.91309;100088.5;;;;-72
2022/10/01 00:10:12;;;;;;;;;;;;;;;11.3;79.80273;100059.1;;;;-73
2022/10/01 00:15:12;;;;;;;;;;;;;;;11.3;78.94922;100029.7;;;;-81
2022/10/01 00:20:13;;;;;;;;;;;;;;;11.32;78.4541;100050.1;;;;-80
2022/10/01 00:22:51;;;;;;;7;3.6;;;;;;;;;;;;;-80
2022/10/01 00:25:13;;;;;;;;;;;;;;;11.3;80.64355;100056.2;;;;-79
2022/10/01 00:30:12;;;;;;;;;;;;;;;11.26;80.66895;100047.5;;;;-78
2022/10/01 00:35:13;;;;;;;;;;;;;;;11.23;80.97363;100034.3;;;;-78
2022/10/01 00:40:12;;;;;;;;;;;;;;;11.24;81.54199;100029;;;;-78
2022/10/01 00:45:14;;;;;;;;;;;;;;;11.24;81.78418;99996.63;;;;-80
2022/10/01 00:50:15;;;;;;;;;;;;;;;11.24;80.69824;99999.94;;;;-78
2022/10/01 00:52:54;;;;;;;6.7;4.1;;;;;;;;;;;;;-78
2022/10/01 00:55:14;;;;;;;;;;;;;;;11.26;80.49121;99994.48;;;;-79
2022/10/01 01:00:15;;;;;;;;;;;;;;;11.24;82.04102;100007.2;;;;-81
2022/10/01 01:05:12;;;;;;;;;;;;;;;11.26;82.76367;99983.84;;;;-79
2022/10/01 01:10:12;;;;;;;;;;;;;;;11.22;83.33301;99924.66;;;;-79
2022/10/01 01:15:17;;;;;;;;;;;;;;;11.2;84.21484;99931.39;;;;-78
2022/10/01 01:20:21;;;;;;;;;;;;;;;11.23;84.69434;99944.47;;;;-81
2022/10/01 01:22:55;;;;;;;4.5;2.8;;;;;;;;;;;;;-79
2022/10/01 01:25:16;;;;;;;;;;;;;;;11.23;83.2998;99954.03;;;;-80
2022/10/01 01:30:14;;;;;;;;;;;;;;;11.23;84.46191;99943.15;;;;-81
2022/10/01 01:35:15;;;;;;;;;;;;;;;11.23;84.1416;99942.72;;;;-80
2022/10/01 01:40:13;;;;;;;;;;;;;;;11.24;85.20508;99933.59;;;;-81
2022/10/01 01:45:15;;;;;;;;;;;;;;;11.24;85.23828;99940.53;;;;-80
2022/10/01 01:50:14;;;;;;;;;;;;;;;11.23;85.04883;99947.45;;;;-79
2022/10/01 01:52:54;;;;;;;2.9;2;;;;;;;;;;;;;-81
2022/10/01 01:55:12;;;;;;;;;;;;;;;11.25;84.46777;99940.05;;;;-79
2022/10/01 02:00:13;;;;;;;;;;;;;;;11.27;83.66113;99935.46;;;;-78
2022/10/01 02:05:13;;;;;;;;;;;;;;;11.26;85.27734;99923.31;;;;-80
2022/10/01 02:10:19;;;;;;;;;;;;;;;11.27;84.80469;99917.11;;;;-80
2022/10/01 02:15:17;;;;;;;;;;;;;;;11.29;85.72656;99928.48;;;;-79
2022/10/01 02:20:17;;;;;;;;;;;;;;;11.31;84.82129;99917.84;;;;-80
2022/10/01 02:22:57;;;;;;;2.6;1.7;;;;;;;;;;;;;-81
2022/10/01 02:25:13;;;;;;;;;;;;;;;11.33;85.85352;99901.43;;;;-80
2022/10/01 02:30:14;;;;;;;;;;;;;;;11.35;85.79297;99896.43;;;;-80
2022/10/01 02:35:13;;;;;;;;;;;;;;;11.38;85.0791;99897.64;;;;-80
2022/10/01 02:40:14;;;;;;;;;;;;;;;11.42;84.93262;99882.66;;;;-80
2022/10/01 02:45:13;;;;;;;;;;;;;;;11.44;85.86621;99883.63;;;;-80
2022/10/01 02:50:12;;;;;;;;;;;;;;;11.48;85.85059;99883.98;;;;-80
2022/10/01 02:52:56;;;;;;;3.8;2.3;;;;;;;;;;;;;-79
2022/10/01 02:55:13;;;;;;;;;;;;;;;11.52;85.63867;99887.65;;;;-80
2022/10/01 03:00:13;;;;;;;;;;;;;;;11.57;86.59961;99879.94;;;;-79
2022/10/01 03:05:14;;;;;;;;;;;;;;;11.61;87.14844;99872.88;;;;-80
2022/10/01 03:10:13;;;;;;;;;;;;;;;11.65;87.17969;99866.06;;;;-78
2022/10/01 03:15:12;;;;;;;;;;;;;;;11.71;88.54102;99884.87;;;;-79
2022/10/01 03:20:12;;;;;;;;;;;;;;;11.72;87.50488;99876.28;;;;-79
2022/10/01 03:22:55;;;;;;;5.5;2.9;;;;;;;;;;;;;-80
2022/10/01 03:25:12;;;;;;;;;;;;;;;11.78;88.51172;99879.92;;;;-79
2022/10/01 03:30:12;;;;;;;;;;;;;;;11.82;87.77734;99888.48;;;;-76
2022/10/01 03:35:12;;;;;;;;;;;;;;;11.88;88.15332;99887.23;;;;-80
2022/10/01 03:40:12;;;;;;;;;;;;;;;11.92;87.92969;99892.02;;;;-79
2022/10/01 03:45:12;;;;;;;;;;;;;;;11.94;89.41699;99903.47;;;;-81
2022/10/01 03:50:12;;;;;;;;;;;;;;;11.94;88.13477;99897.28;;;;-79
2022/10/01 03:52:57;;;;;;;3.9;2.6;;;;;;;;;;;;;-79
2022/10/01 03:55:13;;;;;;;;;;;;;;;11.98;86.36816;99929.92;;;;-79
2022/10/01 04:00:12;;;;;;;;;;;;;;;12.01;85.61035;99933.44;;;;-80
2022/10/01 04:05:15;;;;;;;;;;;;;;;12.02;85.61426;99937.45;;;;-78
2022/10/01 04:10:12;;;;;;;;;;;;;;;11.98;85.41504;99937.37;;;;-79
2022/10/01 04:15:12;;;;;;;;;;;;;;;11.92;84.6416;99942.56;;;;-81
2022/10/01 04:20:12;;;;;;;;;;;;;;;11.86;83.84082;99948.63;;;;-80
2022/10/01 04:22:57;;;;;;;6.5;2.1;;;;;;;;;;;;;-80
2022/10/01 04:25:13;;;;;;;;;;;;;;;11.8;84.0293;99958.55;;;;-78
2022/10/01 04:30:12;;;;;;;;;;;;;;;11.74;83.80859;99957.16;;;;-80
2022/10/01 04:35:11;;;;;;;;;;;;;;;11.69;83.78711;99967;;;;-80
2022/10/01 04:40:12;;;;;;;;;;;;;;;11.64;83.5127;99980.55;;;;-80
2022/10/01 04:45:13;;;;;;;;;;;;;;;11.59;83.37988;99987.38;;;;-79
2022/10/01 04:50:12;;;;;;;;;;;;;;;11.56;84.14844;99996.34;;;;-80
2022/10/01 04:52:58;;;;;;;6.6;2.3;;;;;;;;;;;;;-78
2022/10/01 04:55:12;;;;;;;;;;;;;;;11.54;83.08203;100001.2;;;;-79
2022/10/01 05:00:13;;;;;;;;;;;;;;;11.53;83.46777;100004.4;;;;-79
2022/10/01 05:05:11;;;;;;;;;;;;;;;11.49;82.81836;100009.7;;;;-79
2022/10/01 05:10:14;;;;;;;;;;;;;;;11.43;82.96094;100014.7;;;;-80
2022/10/01 05:15:12;;;;;;;;;;;;;;;11.35;82.66992;100025.6;;;;-79
2022/10/01 05:20:17;;;;;;;;;;;;;;;11.3;82.04004;100034.5;;;;-80
2022/10/01 05:22:59;;;;;;;4.9;1.9;;;;;;;;;;;;;-79
2022/10/01 05:25:12;;;;;;;;;;;;;;;11.28;82.1582;100041.7;;;;-79
2022/10/01 05:30:13;;;;;;;;;;;;;;;11.24;82.27148;100052.5;;;;-79
2022/10/01 05:35:12;;;;;;;;;;;;;;;11.22;81.66992;100060.9;;;;-79
2022/10/01 05:40:12;;;;;;;;;;;;;;;11.22;81.4043;100057;;;;-79
2022/10/01 05:45:12;;;;;;;;;;;;;;;11.21;81.65723;100066.9;;;;-79
2022/10/01 05:50:13;;;;;;;;;;;;;;;11.19;81.33301;100079.4;;;;-81
2022/10/01 05:53:00;;;;;;;5.3;1.5;;;;;;;;;;;;;-79
2022/10/01 05:55:14;;;;;;;;;;;;;;;11.15;81.32617;100089.7;;;;-79
2022/10/01 06:00:12;;;;;;;;;;;;;;;11.14;81.32227;100100.2;;;;-79
2022/10/01 06:05:12;;;;;;;;;;;;;;;11.16;81.03809;100106.5;;;;-78
2022/10/01 06:10:12;;;;;;;;;;;;;;;11.16;80.91602;100117;;;;-79
2022/10/01 06:15:12;;;;;;;;;;;;;;;11.15;81.33691;100114.9;;;;-78
2022/10/01 06:20:12;;;;;;;;;;;;;;;11.17;81.27539;100113.7;;;;-81
2022/10/01 06:23:04;;;;;;;5.9;1.6;;;;;;;;;;;;;-80
2022/10/01 06:25:12;;;;;;;;;;;;;;;11.24;80.47656;100110.7;;;;-78
2022/10/01 06:30:12;;;;;;;;;;;;;;;11.3;80.56641;100115.7;;;;-78
2022/10/01 06:35:12;;;;;;;;;;;;;;;11.36;80.67578;100118.4;;;;-78
2022/10/01 06:40:12;;;;;;;;;;;;;;;11.42;80.98828;100127.9;;;;-78
2022/10/01 06:45:12;;;;;;;;;;;;;;;11.47;81.65332;100131.7;;;;-79
2022/10/01 06:50:11;;;;;;;;;;;;;;;11.58;82.3916;100136.7;;;;-80
2022/10/01 06:53:03;;;;;;;4.6;1.3;;;;;;;;;;;;;-79
2022/10/01 06:55:12;;;;;;;;;;;;;;;11.77;82.80469;100142.7;;;;-79
2022/10/01 07:00:12;;;;;;;;;;;;;;;11.9;82.5957;100148.7;;;;-79
2022/10/01 07:05:12;;;;;;;;;;;;;;;11.98;82.82031;100151.2;;;;-78
2022/10/01 07:10:12;;;;;;;;;;;;;;;12.06;82.8584;100156.4;;;;-78
2022/10/01 07:15:12;;;;;;;;;;;;;;;12.15;81.80078;100161.6;;;;-78
2022/10/01 07:20:13;;;;;;;;;;;;;;;12.28;83.29883;100164.6;;;;-78
2022/10/01 07:23:03;;;;;;;9.5;1.4;;;;;;;;;;;;;-78
2022/10/01 07:25:12;;;;;;;;;;;;;;;12.43;83.7832;100177;;;;-78
2022/10/01 07:30:12;;;;;;;;;;;;;;;12.66;84.71484;100180.8;;;;-79
2022/10/01 07:35:13;;;;;;;;;;;;;;;12.99;83.90234;100178.5;;;;-77
2022/10/01 07:40:15;;;;;;;;;;;;;;;13.32;83.38574;100183.9;;;;-78
2022/10/01 07:45:12;;;;;;;;;;;;;;;13.47;83.05859;100189.6;;;;-77
2022/10/01 07:50:13;;;;;;;;;;;;;;;13.47;83.45996;100195.3;;;;-77
2022/10/01 07:53:04;;;;;;;8.2;1.6;;;;;;;;;;;;;-78
2022/10/01 07:55:13;;;;;;;;;;;;;;;13.42;83.43848;100206.1;;;;-77
2022/10/01 08:00:12;;;;;;;;;;;;;;;13.35;83.48145;100210;;;;-78
2022/10/01 08:05:21;;;;;;;;;;;;;;;13.29;83.18066;100212.9;;;;-78
2022/10/01 08:10:12;;;;;;;;;;;;;;;13.45;84.60254;100212.7;;;;-78
2022/10/01 08:15:12;;;;;;;;;;;;;;;14.03;84.62305;100223.9;;;;-77
2022/10/01 08:20:13;;;;;;;;;;;;;;;14.49;83.40723;100227.9;;;;-78
2022/10/01 08:23:10;;;;;;;8.9;1.9;;;;;;;;;;;;;-78
2022/10/01 08:25:12;;;;;;;;;;;;;;;14.9;83.5293;100230.3;;;;-77
2022/10/01 08:30:12;;;;;;;;;;;;;;;15.21;83.05176;100243.6;;;;-76
2022/10/01 08:35:12;;;;;;;;;;;;;;;15.18;82.12988;100249.6;;;;-78
2022/10/01 08:40:12;;;;;;;;;;;;;;;14.88;82.15039;100258.9;;;;-74
2022/10/01 08:45:14;;;;;;;;;;;;;;;14.68;82.79395;100265;;;;-78
2022/10/01 08:50:16;;;;;;;;;;;;;;;14.91;83.91113;100271.2;;;;-78
2022/10/01 08:53:12;;;;;;;9.8;1.4;;;;;;;;;;;;;-78
2022/10/01 08:55:14;;;;;;;;;;;;;;;15.03;82.48145;100280.1;;;;-77
2022/10/01 09:00:14;;;;;;;;;;;;;;;14.88;81.80664;100291.9;;;;-78
2022/10/01 09:05:19;;;;;;;;;;;;;;;14.65;82.57715;100297.6;;;;-73
2022/10/01 09:10:19;;;;;;;;;;;;;;;14.63;83.25488;100299.9;;;;-71
2022/10/01 09:15:19;;;;;;;;;;;;;;;14.72;82.8584;100314.4;;;;-74
2022/10/01 09:20:14;;;;;;;;;;;;;;;14.82;84.2373;100326;;;;-71
2022/10/01 09:23:21;;;;;;;11.4;2;;;;;;;;;;;;;-71
2022/10/01 09:25:19;;;;;;;;;;;;;;;15.21;82.79297;100329.5;;;;-72
2022/10/01 09:30:14;;;;;;;;;;;;;;;15.35;81.65723;100337.6;;;;-74
2022/10/01 09:35:19;;;;;;;;;;;;;;;15.31;81.4043;100347.2;;;;-76
2022/10/01 09:40:18;;;;;;;;;;;;;;;15.24;80.80957;100350;;;;-79
2022/10/01 09:45:14;;;;;;;;;;;;;;;15.25;80.43262;100356.5;;;;-78
2022/10/01 09:50:16;;;;;;;;;;;;;;;15.48;81.12109;100359.8;;;;-78
2022/10/01 09:53:13;;;;;;;12.1;2.1;;;;;;;;;;;;;-76
2022/10/01 09:55:22;;;;;;;;;;;;;;;16.05;81.70801;100363.1;;;;-81
2022/10/01 10:00:13;;;;;;;;;;;;;;;16.42;79.60156;100360.8;;;;-76
2022/10/01 10:05:12;;;;;;;;;;;;;;;16.63;78.61816;100378.5;;;;-78
2022/10/01 10:10:20;;;;;;;;;;;;;;;16.83;77.27148;100387.2;;;;-75
2022/10/01 10:15:18;;;;;;;;;;;;;;;16.72;76.52246;100394.9;;;;-78
2022/10/01 10:20:22;;;;;;;;;;;;;;;16.88;77.17871;100408.4;;;;-77
2022/10/01 10:23:17;;;;;;;15;2.1;;;;;;;;;;;;;-77
2022/10/01 10:25:22;;;;;;;;;;;;;;;17.06;76.6709;100422.5;;;;-75
2022/10/01 10:30:16;;;;;;;;;;;;;;;17.33;75.68262;100416.9;;;;-77
2022/10/01 10:35:14;;;;;;;;;;;;;;;17.61;74.03027;100440.5;;;;-77
2022/10/01 10:40:19;;;;;;;;;;;;;;;17.97;73.52539;100444.5;;;;-76
2022/10/01 10:45:19;;;;;;;;;;;;;;;18.05;71.7334;100454.4;;;;-78
2022/10/01 10:50:24;;;;;;;;;;;;;;;18.06;71.85742;100459.4;;;;-78
2022/10/01 10:53:23;;;;;;;10.9;1.6;;;;;;;;;;;;;-77
2022/10/01 10:55:24;;;;;;;;;;;;;;;17.93;71.43262;100470.1;;;;-79
2022/10/01 11:00:15;;;;;;;;;;;;;;;17.87;71.36621;100486.2;;;;-78
2022/10/01 11:05:20;;;;;;;;;;;;;;;17.92;70.6748;100495.7;;;;-74
2022/10/01 11:10:22;;;;;;;;;;;;;;;17.95;69.60742;100504.8;;;;-77
2022/10/01 11:15:18;;;;;;;;;;;;;;;17.37;67.32813;100515.3;;;;-75
2022/10/01 11:20:21;;;;;;;;;;;;;;;17.42;65.7334;100524.1;;;;-74
2022/10/01 11:23:29;;;;;;;12.6;1.4;;;;;;;;;;;;;-77
2022/10/01 11:25:22;;;;;;;;;;;;;;;17.61;66.98145;100539.1;;;;-78
2022/10/01 11:30:13;;;;;;;;;;;;;;;17.72;67.84473;100549.6;;;;-77
2022/10/01 11:35:25;;;;;;;;;;;;;;;17.64;68.29297;100556;;;;-76
2022/10/01 11:40:17;;;;;;;;;;;;;;;17.5;66.89746;100562.7;;;;-76
2022/10/01 11:45:17;;;;;;;;;;;;;;;17.38;68.04004;100565.8;;;;-77
2022/10/01 11:50:17;;;;;;;;;;;;;;;17.46;68.22168;100578.3;;;;-77
2022/10/01 11:53:23;;;;;;;7.1;1.3;;;;;;;;;;;;;-76
2022/10/01 12:00:13;;;;;;;;;;;;;;;17.51;67.38281;100600.6;;;;-78
2022/10/01 12:05:15;;;;;;;;;;;;;;;17.44;67.13477;100601.9;;;;-77
2022/10/01 12:10:17;;;;;;;;;;;;;;;17.38;67.06934;100612.5;;;;-77
2022/10/01 12:15:13;;;;;;;;;;;;;;;17.5;67.75488;100613.3;;;;-77
2022/10/01 12:20:17;;;;;;;;;;;;;;;17.63;66.91602;100621.5;;;;-71
2022/10/01 12:23:24;;;;;;;9.2;1.9;;;;;;;;;;;;;-77
2022/10/01 12:25:13;;;;;;;;;;;;;;;17.64;66.10352;100627.1;;;;-77
2022/10/01 12:30:13;;;;;;;;;;;;;;;17.52;66.72949;100625.7;;;;-78
2022/10/01 12:35:19;;;;;;;;;;;;;;;17.6;66.18848;100633.6;;;;-75
2022/10/01 12:40:29;;;;;;;;;;;;;;;17.76;67.38672;100635.3;;;;-78
2022/10/01 12:45:18;;;;;;;;;;;;;;;17.84;66.95801;100641.6;;;;-71
2022/10/01 12:50:19;;;;;;;;;;;;;;;17.8;66.87305;100642.5;;;;-71
2022/10/01 12:53:32;;;;;;;10.2;1.2;;;;;;;;;;;;;-72
2022/10/01 12:55:20;;;;;;;;;;;;;;;18.01;66.42969;100656.5;;;;-72
2022/10/01 13:00:14;;;;;;;;;;;;;;;18.01;65.34473;100658.6;;;;-71
2022/10/01 13:05:22;;;;;;;;;;;;;;;18.19;65.44922;100664.7;;;;-72
2022/10/01 13:10:18;;;;;;;;;;;;;;;17.99;64.74316;100672.3;;;;-72
2022/10/01 13:15:14;;;;;;;;;;;;;;;18.05;66.45898;100681.1;;;;-72
2022/10/01 13:20:18;;;;;;;;;;;;;;;17.97;65.87109;100693.9;;;;-72
2022/10/01 13:23:32;;;;;;;10.6;1.4;;;;;;;;;;;;;-71
2022/10/01 13:25:21;;;;;;;;;;;;;;;18.02;67.29004;100692;;;;-73
2022/10/01 13:30:19;;;;;;;;;;;;;;;18.12;66.1875;100699.5;;;;-76
2022/10/01 13:35:22;;;;;;;;;;;;;;;18.07;66.49609;100704.4;;;;-77
2022/10/01 13:40:24;;;;;;;;;;;;;;;18.07;64.12207;100711.8;;;;-77
2022/10/01 13:45:22;;;;;;;;;;;;;;;18.06;64.32227;100722.9;;;;-74
2022/10/01 13:50:24;;;;;;;;;;;;;;;17.86;64.11426;100732.3;;;;-71
2022/10/01 13:53:31;;;;;;;8.1;1.4;;;;;;;;;;;;;-73
2022/10/01 13:55:26;;;;;;;;;;;;;;;17.78;64.19238;100740.9;;;;-72
2022/10/01 14:00:23;;;;;;;;;;;;;;;17.74;65.22656;100749.9;;;;-71
2022/10/01 14:05:25;;;;;;;;;;;;;;;17.82;65.2373;100757;;;;-72
2022/10/01 14:10:15;;;;;;;;;;;;;;;17.77;63.85352;100764.6;;;;-76
2022/10/01 14:20:19;;;;;;;;;;;;;;;17.58;64.75098;100783.1;;;;-76
2022/10/01 14:23:37;;;;;;;8.8;1.4;;;;;;;;;;;;;-77
2022/10/01 14:25:25;;;;;;;;;;;;;;;17.48;65.80957;100793.2;;;;-77
2022/10/01 14:30:14;;;;;;;;;;;;;;;17.37;65.51074;100793.4;;;;-77
2022/10/01 14:35:25;;;;;;;;;;;;;;;17.39;65.36816;100808.8;;;;-77
2022/10/01 14:40:17;;;;;;;;;;;;;;;17.49;65.05273;100808.5;;;;-78
2022/10/01 14:45:21;;;;;;;;;;;;;;;17.57;64.72852;100812;;;;-76
2022/10/01 14:50:21;;;;;;;;;;;;;;;17.71;63.44727;100814.8;;;;-77
2022/10/01 14:53:36;;;;;;;7.8;1.3;;;;;;;;;;;;;-77
2022/10/01 14:55:16;;;;;;;;;;;;;;;17.7;63.09668;100819;;;;-77
2022/10/01 15:00:16;;;;;;;;;;;;;;;17.66;62.32129;100829.1;;;;-77
2022/10/01 15:05:23;;;;;;;;;;;;;;;17.59;62.11816;100834.2;;;;-77
2022/10/01 15:10:19;;;;;;;;;;;;;;;17.51;62.58398;100841.6;;;;-77
2022/10/01 15:15:18;;;;;;;;;;;;;;;17.49;63.22363;100829.9;;;;-77
2022/10/01 15:20:14;;;;;;;;;;;;;;;17.46;62.8584;100836.8;;;;-76
2022/10/01 15:23:40;;;;;;;8.5;1.2;;;;;;;;;;;;;-76
2022/10/01 15:25:18;;;;;;;;;;;;;;;17.43;62.92285;100847.1;;;;-77
2022/10/01 15:30:17;;;;;;;;;;;;;;;17.45;62.94727;100848.9;;;;-78
2022/10/01 15:35:15;;;;;;;;;;;;;;;17.44;62.83203;100848.3;;;;-76
2022/10/01 15:40:23;;;;;;;;;;;;;;;17.43;63.0918;100853;;;;-77
2022/10/01 15:45:24;;;;;;;;;;;;;;;17.4;63.3125;100866.9;;;;-77
2022/10/01 15:50:22;;;;;;;;;;;;;;;17.36;63.56738;100869.8;;;;-76
2022/10/01 15:53:40;;;;;;;7;1.3;;;;;;;;;;;;;-76
2022/10/01 15:55:15;;;;;;;;;;;;;;;17.33;63.48438;100874.4;;;;-77
2022/10/01 16:00:22;;;;;;;;;;;;;;;17.25;64.09375;100876.8;;;;-76
2022/10/01 16:05:18;;;;;;;;;;;;;;;17.17;63.92383;100885.8;;;;-76
2022/10/01 16:10:29;;;;;;;;;;;;;;;17.04;64.38965;100894.4;;;;-76
2022/10/01 16:15:25;;;;;;;;;;;;;;;16.92;64.7666;100900.4;;;;-77
2022/10/01 16:20:23;;;;;;;;;;;;;;;16.84;64.7334;100907.3;;;;-76
2022/10/01 16:23:51;;;;;;;4.8;1.1;;;;;;;;;;;;;-76
2022/10/01 16:25:26;;;;;;;;;;;;;;;16.76;65.18359;100904.1;;;;-76
2022/10/01 16:30:21;;;;;;;;;;;;;;;16.71;65.34668;100908;;;;-77
2022/10/01 16:35:25;;;;;;;;;;;;;;;16.65;65.57227;100912.8;;;;-76
2022/10/01 16:40:12;;;;;;;;;;;;;;;16.57;66.04688;100929.5;;;;-77
2022/10/01 16:45:16;;;;;;;;;;;;;;;16.51;66.02539;100950.7;;;;-77
2022/10/01 16:50:13;;;;;;;;;;;;;;;16.4;65.97461;100957;;;;-76
2022/10/01 16:53:45;;;;;;;4.8;1.3;;;;;;;;;;;;;-76
2022/10/01 16:55:14;;;;;;;;;;;;;;;16.21;66.06055;100950.6;;;;-76
2022/10/01 17:00:12;;;;;;;;;;;;;;;15.99;66.27441;100942.6;;;;-76
2022/10/01 17:05:16;;;;;;;;;;;;;;;15.82;66.46191;100955.1;;;;-78
2022/10/01 17:10:11;;;;;;;;;;;;;;;15.68;66.74512;100964.1;;;;-77
2022/10/01 17:15:14;;;;;;;;;;;;;;;15.56;66.68359;100978.8;;;;-77
2022/10/01 17:20:12;;;;;;;;;;;;;;;15.45;66.66504;100983.2;;;;-77
2022/10/01 17:23:47;;;;;;;5.4;0.9;;;;;;;;;;;;;-76
2022/10/01 17:25:16;;;;;;;;;;;;;;;15.34;66.8291;100989.3;;;;-78
2022/10/01 17:30:12;;;;;;;;;;;;;;;15.25;66.69141;101000.7;;;;-77
2022/10/01 17:35:13;;;;;;;;;;;;;;;15.15;66.64355;100997.7;;;;-76
2022/10/01 17:40:12;;;;;;;;;;;;;;;15.04;67.24316;101011.3;;;;-78
2022/10/01 17:45:13;;;;;;;;;;;;;;;14.91;67.52734;101020.8;;;;-76
2022/10/01 17:50:11;;;;;;;;;;;;;;;14.77;67.3252;101027.4;;;;-76
2022/10/01 17:53:49;;;;;;;4.3;0.9;;;;;;;;;;;;;-77
2022/10/01 17:55:12;;;;;;;;;;;;;;;14.6;66.80566;101027;;;;-77
2022/10/01 18:00:12;;;;;;;;;;;;;;;14.44;67.81348;101031.9;;;;-78
2022/10/01 18:05:13;;;;;;;;;;;;;;;14.26;67.31445;101036.8;;;;-76
2022/10/01 18:10:13;;;;;;;;;;;;;;;14.11;67.85254;101041.6;;;;-76
2022/10/01 18:15:12;;;;;;;;;;;;;;;13.97;67.41602;101052.3;;;;-76
2022/10/01 18:20:12;;;;;;;;;;;;;;;13.82;67.62793;101058.7;;;;-75
2022/10/01 18:23:51;;;;;;;3.2;0.9;;;;;;;;;;;;;-76
2022/10/01 18:25:12;;;;;;;;;;;;;;;13.71;67.75684;101062.5;;;;-77
2022/10/01 18:30:12;;;;;;;;;;;;;;;13.58;68.24023;101066;;;;-76
2022/10/01 18:35:19;;;;;;;;;;;;;;;13.46;68.63574;101070;;;;-76
2022/10/01 18:40:15;;;;;;;;;;;;;;;13.35;68.8418;101081.1;;;;-75
2022/10/01 18:45:16;;;;;;;;;;;;;;;13.25;69.31641;101089.5;;;;-76
2022/10/01 18:50:22;;;;;;;;;;;;;;;13.15;69.69336;101091.2;;;;-76
2022/10/01 18:54:04;;;;;;;7.2;1.6;;;;;;;;;;;;;-75
2022/10/01 18:55:30;;;;;;;;;;;;;;;13.08;69.8252;101094.9;;;;-76
2022/10/01 19:00:15;;;;;;;;;;;;;;;13;70.09277;101109.4;;;;-77
2022/10/01 19:05:28;;;;;;;;;;;;;;;12.94;69.9707;101117;;;;-76
2022/10/01 19:10:15;;;;;;;;;;;;;;;12.87;70.10547;101128.7;;;;-77
2022/10/01 19:15:17;;;;;;;;;;;;;;;12.83;70.3125;101131.4;;;;-76
2022/10/01 19:20:18;;;;;;;;;;;;;;;12.76;70.55664;101130.8;;;;-77
2022/10/01 19:24:09;;;;;;;4.2;1.4;;;;;;;;;;;;;-76
2022/10/01 19:25:17;;;;;;;;;;;;;;;12.7;70.66895;101136.8;;;;-77
2022/10/01 19:30:14;;;;;;;;;;;;;;;12.65;71.08398;101139;;;;-76
2022/10/01 19:35:16;;;;;;;;;;;;;;;12.61;71.03418;101137.8;;;;-76
2022/10/01 19:40:18;;;;;;;;;;;;;;;12.59;71.53125;101144.3;;;;-76
2022/10/01 19:45:19;;;;;;;;;;;;;;;12.56;71.18066;101142.1;;;;-76
2022/10/01 19:50:18;;;;;;;;;;;;;;;12.55;71.19238;101140.2;;;;-76
2022/10/01 19:54:00;;;;;;;5.7;1.2;;;;;;;;;;;;;-77
2022/10/01 19:55:15;;;;;;;;;;;;;;;12.52;71.40918;101153;;;;-76
2022/10/01 20:00:16;;;;;;;;;;;;;;;12.46;71.17578;101159.9;;;;-76
2022/10/01 20:05:13;;;;;;;;;;;;;;;12.41;71.28027;101167.2;;;;-75
2022/10/01 20:10:19;;;;;;;;;;;;;;;12.35;71.83887;101172.6;;;;-76
2022/10/01 20:15:18;;;;;;;;;;;;;;;12.28;71.97168;101184.4;;;;-77
2022/10/01 20:20:17;;;;;;;;;;;;;;;12.24;71.85449;101182.4;;;;-76
2022/10/01 20:24:00;;;;;;;6;1.4;;;;;;;;;;;;;-75
2022/10/01 20:25:20;;;;;;;;;;;;;;;12.19;72.10352;101184.8;;;;-77
2022/10/01 20:30:13;;;;;;;;;;;;;;;12.19;72.19141;101189.9;;;;-75
2022/10/01 20:35:22;;;;;;;;;;;;;;;12.16;72.4873;101194.3;;;;-76
2022/10/01 20:40:16;;;;;;;;;;;;;;;12.12;72.47949;101203.4;;;;-76
2022/10/01 20:45:16;;;;;;;;;;;;;;;12.09;72.57324;101207.1;;;;-76
2022/10/01 20:50:15;;;;;;;;;;;;;;;12.08;72.46191;101208.8;;;;-77
2022/10/01 20:54:02;;;;;;;7.7;1.8;;;;;;;;;;;;;-76
2022/10/01 20:55:15;;;;;;;;;;;;;;;12.05;72.52441;101210.7;;;;-76
2022/10/01 21:00:17;;;;;;;;;;;;;;;12.07;74.67285;101211.2;;;;-76
2022/10/01 21:05:16;;;;;;;;;;;;;;;12.12;73.69238;101211.5;;;;-75
2022/10/01 21:10:17;;;;;;;;;;;;;;;12.17;73.2998;101208.3;;;;-76
2022/10/01 21:15:14;;;;;;;;;;;;;;;12.22;73.43066;101204.1;;;;-75
2022/10/01 21:20:19;;;;;;;;;;;;;;;12.28;74.28613;101199.1;;;;-75
2022/10/01 21:24:10;;;;;;;8.7;1.4;;;;;;;;;;;;;-77
2022/10/01 21:25:16;;;;;;;;;;;;;;;12.33;74.64063;101200.5;;;;-76
2022/10/01 21:30:14;;;;;;;;;;;;;;;12.32;74.68359;101198.9;;;;-77
2022/10/01 21:35:18;;;;;;;;;;;;;;;12.3;74.42383;101201.7;;;;-75
2022/10/01 21:40:20;;;;;;;;;;;;;;;12.29;74.65625;101208.5;;;;-76
2022/10/01 21:45:22;;;;;;;;;;;;;;;12.27;74.68652;101214.4;;;;-71
2022/10/01 21:50:18;;;;;;;;;;;;;;;12.29;75.1123;101221.8;;;;-72
2022/10/01 21:54:09;;;;;;;8.7;1.2;;;;;;;;;;;;;-72
2022/10/01 21:55:32;;;;;;;;;;;;;;;12.31;74.53711;101228.3;;;;-77
2022/10/01 22:00:18;;;;;;;;;;;;;;;12.35;74.69922;101269.5;;;;-76
2022/10/01 22:05:20;;;;;;;;;;;;;;;12.57;77.30859;101294.6;;;;-75
2022/10/01 22:10:16;;;;;;;;;;;;;;;12.56;77.60547;101286.2;;;;-75
2022/10/01 22:15:17;;;;;;;;;;;;;;;12.51;76.81934;101287.7;;;;-75
2022/10/01 22:20:12;;;;;;;;;;;;;;;12.46;77.11133;101288.6;;;;-75
2022/10/01 22:24:05;;;;;;;3.9;0.9;;;;;;;;;;;;;-77
2022/10/01 22:25:12;;;;;;;;;;;;;;;12.47;76.92383;101276;;;;-76
2022/10/01 22:30:14;;;;;;;;;;;;;;;12.46;76.70898;101275.5;;;;-76
2022/10/01 22:35:16;;;;;;;;;;;;;;;12.44;76.45215;101282.6;;;;-76
2022/10/01 22:40:17;;;;;;;;;;;;;;;12.39;76.1084;101284.7;;;;-76
2022/10/01 22:45:15;;;;;;;;;;;;;;;12.35;76.01172;101283.4;;;;-76
2022/10/01 22:50:19;;;;;;;;;;;;;;;12.32;75.75293;101286.3;;;;-76
2022/10/01 22:54:10;;;;;;;4.6;0.7;;;;;;;;;;;;;-76
2022/10/01 22:55:19;;;;;;;;;;;;;;;12.28;75.49902;101287.6;;;;-75
2022/10/01 23:00:12;;;;;;;;;;;;;;;12.23;75.70215;101288.3;;;;-76
2022/10/01 23:05:15;;;;;;;;;;;;;;;12.17;76.09277;101290.8;;;;-77
2022/10/01 23:10:14;;;;;;;;;;;;;;;12.1;75.625;101290.4;;;;-76
2022/10/01 23:15:16;;;;;;;;;;;;;;;12.06;75.9834;101296.3;;;;-76
2022/10/01 23:20:19;;;;;;;;;;;;;;;11.99;75.77246;101299.9;;;;-76
2022/10/01 23:24:12;;;;;;;4.8;1;;;;;;;;;;;;;-76
2022/10/01 23:25:18;;;;;;;;;;;;;;;11.91;75.66992;101300.1;;;;-76
2022/10/01 23:30:15;;;;;;;;;;;;;;;11.89;75.58984;101308.9;;;;-76
2022/10/01 23:35:15;;;;;;;;;;;;;;;11.87;75.75098;101314.5;;;;-75
2022/10/01 23:40:12;;;;;;;;;;;;;;;11.85;75.4043;101312.4;;;;-76
2022/10/01 23:45:23;;;;;;;;;;;;;;;11.88;75.67578;101321;;;;-76
2022/10/01 23:50:20;;;;;;;;;;;;;;;11.91;76.09082;101335.4;;;;-76
2022/10/01 23:54:08;;;;;;;9;1.5;;;;;;;;;;;;;-75
